sensor_id;sensor_type;location;lat;lon;timestamp;P1;durP1;ratioP1;P2;durP2;ratioP2
60436;SDS011;46289;51.992;4.498;2022-07-29T00:01:51;5.25;;;2.70;;
60436;SDS011;46289;51.992;4.498;2022-07-29T00:04:24;4.13;;;2.10;;
60436;SDS011;46289;51.992;4.498;2022-07-29T00:06:54;5.68;;;3.25;;
60436;SDS011;46289;51.992;4.498;2022-07-29T00:09:25;6.55;;;3.15;;
60436;SDS011;46289;51.992;4.498;2022-07-29T00:11:55;7.80;;;2.65;;
60436;SDS011;46289;51.992;4.498;2022-07-29T00:14:28;7.03;;;2.60;;
60436;SDS011;46289;51.992;4.498;2022-07-29T00:16:59;8.02;;;2.60;;
60436;SDS011;46289;51.992;4.498;2022-07-29T00:19:31;6.45;;;2.75;;
60436;SDS011;46289;51.992;4.498;2022-07-29T00:22:03;6.22;;;3.00;;
60436;SDS011;46289;51.992;4.498;2022-07-29T00:24:33;5.93;;;2.95;;
60436;SDS011;46289;51.992;4.498;2022-07-29T00:27:03;5.07;;;2.35;;
60436;SDS011;46289;51.992;4.498;2022-07-29T00:29:33;5.50;;;2.35;;
60436;SDS011;46289;51.992;4.498;2022-07-29T00:32:04;5.30;;;2.72;;
60436;SDS011;46289;51.992;4.498;2022-07-29T00:34:38;7.47;;;2.78;;
60436;SDS011;46289;51.992;4.498;2022-07-29T00:37:21;5.93;;;2.40;;
60436;SDS011;46289;51.992;4.498;2022-07-29T00:39:51;7.93;;;3.35;;
60436;SDS011;46289;51.992;4.498;2022-07-29T00:42:21;9.45;;;3.08;;
60436;SDS011;46289;51.992;4.498;2022-07-29T00:44:51;5.65;;;2.50;;
60436;SDS011;46289;51.992;4.498;2022-07-29T00:47:22;6.97;;;2.45;;
60436;SDS011;46289;51.992;4.498;2022-07-29T00:49:54;8.52;;;2.88;;
60436;SDS011;46289;51.992;4.498;2022-07-29T00:52:25;7.72;;;2.88;;
60436;SDS011;46289;51.992;4.498;2022-07-29T00:54:55;7.55;;;2.67;;
60436;SDS011;46289;51.992;4.498;2022-07-29T00:57:34;8.20;;;2.55;;
60436;SDS011;46289;51.992;4.498;2022-07-29T01:00:05;5.22;;;2.90;;
60436;SDS011;46289;51.992;4.498;2022-07-29T01:02:37;7.32;;;3.05;;
60436;SDS011;46289;51.992;4.498;2022-07-29T01:05:11;5.63;;;2.67;;
60436;SDS011;46289;51.992;4.498;2022-07-29T01:07:44;8.18;;;2.92;;
60436;SDS011;46289;51.992;4.498;2022-07-29T01:10:17;6.50;;;3.15;;
60436;SDS011;46289;51.992;4.498;2022-07-29T01:12:50;8.23;;;2.87;;
60436;SDS011;46289;51.992;4.498;2022-07-29T01:15:24;6.07;;;2.80;;
60436;SDS011;46289;51.992;4.498;2022-07-29T01:17:57;6.97;;;3.00;;
60436;SDS011;46289;51.992;4.498;2022-07-29T01:20:54;6.20;;;3.13;;
60436;SDS011;46289;51.992;4.498;2022-07-29T01:23:48;6.20;;;3.10;;
60436;SDS011;46289;51.992;4.498;2022-07-29T01:29:12;6.57;;;3.13;;
60436;SDS011;46289;51.992;4.498;2022-07-29T01:31:54;7.38;;;2.75;;
60436;SDS011;46289;51.992;4.498;2022-07-29T01:34:29;6.50;;;3.15;;
60436;SDS011;46289;51.992;4.498;2022-07-29T01:37:11;7.45;;;3.55;;
60436;SDS011;46289;51.992;4.498;2022-07-29T01:39:48;6.15;;;2.92;;
60436;SDS011;46289;51.992;4.498;2022-07-29T01:42:23;9.48;;;3.38;;
60436;SDS011;46289;51.992;4.498;2022-07-29T01:45:02;6.43;;;3.10;;
60436;SDS011;46289;51.992;4.498;2022-07-29T01:47:40;7.07;;;3.35;;
60436;SDS011;46289;51.992;4.498;2022-07-29T01:50:18;8.43;;;3.22;;
60436;SDS011;46289;51.992;4.498;2022-07-29T01:52:54;8.68;;;3.78;;
60436;SDS011;46289;51.992;4.498;2022-07-29T01:55:32;7.97;;;4.00;;
60436;SDS011;46289;51.992;4.498;2022-07-29T01:58:05;8.15;;;3.17;;
60436;SDS011;46289;51.992;4.498;2022-07-29T02:00:41;6.65;;;3.10;;
60436;SDS011;46289;51.992;4.498;2022-07-29T02:03:15;7.50;;;3.13;;
60436;SDS011;46289;51.992;4.498;2022-07-29T02:05:47;8.93;;;3.33;;
60436;SDS011;46289;51.992;4.498;2022-07-29T02:08:22;5.27;;;3.13;;
60436;SDS011;46289;51.992;4.498;2022-07-29T02:10:55;8.73;;;2.90;;
60436;SDS011;46289;51.992;4.498;2022-07-29T02:13:26;7.10;;;3.40;;
60436;SDS011;46289;51.992;4.498;2022-07-29T02:16:04;7.65;;;3.08;;
60436;SDS011;46289;51.992;4.498;2022-07-29T02:18:37;9.75;;;4.28;;
60436;SDS011;46289;51.992;4.498;2022-07-29T02:21:13;5.70;;;3.17;;
60436;SDS011;46289;51.992;4.498;2022-07-29T02:23:49;9.18;;;3.97;;
60436;SDS011;46289;51.992;4.498;2022-07-29T02:26:20;8.43;;;3.47;;
60436;SDS011;46289;51.992;4.498;2022-07-29T02:28:54;7.03;;;3.50;;
60436;SDS011;46289;51.992;4.498;2022-07-29T02:31:29;6.93;;;3.22;;
60436;SDS011;46289;51.992;4.498;2022-07-29T02:34:05;6.60;;;3.10;;
60436;SDS011;46289;51.992;4.498;2022-07-29T02:36:38;7.40;;;3.65;;
60436;SDS011;46289;51.992;4.498;2022-07-29T02:39:14;5.60;;;3.00;;
60436;SDS011;46289;51.992;4.498;2022-07-29T02:41:48;9.00;;;4.68;;
60436;SDS011;46289;51.992;4.498;2022-07-29T02:44:23;5.95;;;3.15;;
60436;SDS011;46289;51.992;4.498;2022-07-29T02:47:05;6.38;;;2.78;;
60436;SDS011;46289;51.992;4.498;2022-07-29T02:49:40;10.45;;;3.63;;
60436;SDS011;46289;51.992;4.498;2022-07-29T02:52:19;9.13;;;3.13;;
60436;SDS011;46289;51.992;4.498;2022-07-29T02:54:56;7.30;;;3.40;;
60436;SDS011;46289;51.992;4.498;2022-07-29T02:57:32;6.30;;;3.50;;
60436;SDS011;46289;51.992;4.498;2022-07-29T03:00:21;7.53;;;3.17;;
60436;SDS011;46289;51.992;4.498;2022-07-29T03:02:59;9.15;;;3.83;;
60436;SDS011;46289;51.992;4.498;2022-07-29T03:05:33;12.25;;;3.97;;
60436;SDS011;46289;51.992;4.498;2022-07-29T03:08:04;7.15;;;3.63;;
60436;SDS011;46289;51.992;4.498;2022-07-29T03:10:39;8.10;;;3.53;;
60436;SDS011;46289;51.992;4.498;2022-07-29T03:13:13;9.52;;;3.55;;
60436;SDS011;46289;51.992;4.498;2022-07-29T03:15:45;5.93;;;3.40;;
60436;SDS011;46289;51.992;4.498;2022-07-29T03:18:20;8.13;;;4.20;;
60436;SDS011;46289;51.992;4.498;2022-07-29T03:20:51;7.80;;;3.42;;
60436;SDS011;46289;51.992;4.498;2022-07-29T03:23:22;8.60;;;3.83;;
60436;SDS011;46289;51.992;4.498;2022-07-29T03:26:02;8.20;;;4.10;;
60436;SDS011;46289;51.992;4.498;2022-07-29T03:28:32;8.15;;;3.38;;
60436;SDS011;46289;51.992;4.498;2022-07-29T03:31:04;6.82;;;4.03;;
60436;SDS011;46289;51.992;4.498;2022-07-29T03:33:37;8.55;;;3.83;;
60436;SDS011;46289;51.992;4.498;2022-07-29T03:36:07;10.20;;;4.00;;
60436;SDS011;46289;51.992;4.498;2022-07-29T03:38:39;11.50;;;4.43;;
60436;SDS011;46289;51.992;4.498;2022-07-29T03:41:12;13.00;;;4.47;;
60436;SDS011;46289;51.992;4.498;2022-07-29T03:43:47;8.38;;;3.58;;
60436;SDS011;46289;51.992;4.498;2022-07-29T03:46:22;9.20;;;4.32;;
60436;SDS011;46289;51.992;4.498;2022-07-29T03:49:01;9.43;;;4.03;;
60436;SDS011;46289;51.992;4.498;2022-07-29T03:51:34;11.00;;;4.30;;
60436;SDS011;46289;51.992;4.498;2022-07-29T03:54:05;9.43;;;4.60;;
60436;SDS011;46289;51.992;4.498;2022-07-29T03:56:38;11.32;;;4.53;;
60436;SDS011;46289;51.992;4.498;2022-07-29T03:59:15;13.02;;;4.57;;
60436;SDS011;46289;51.992;4.498;2022-07-29T04:01:49;10.65;;;4.45;;
60436;SDS011;46289;51.992;4.498;2022-07-29T04:04:22;15.00;;;4.97;;
60436;SDS011;46289;51.992;4.498;2022-07-29T04:06:54;8.15;;;4.65;;
60436;SDS011;46289;51.992;4.498;2022-07-29T04:09:24;9.65;;;4.30;;
60436;SDS011;46289;51.992;4.498;2022-07-29T04:11:54;9.50;;;4.45;;
60436;SDS011;46289;51.992;4.498;2022-07-29T04:14:30;8.02;;;4.40;;
60436;SDS011;46289;51.992;4.498;2022-07-29T04:17:01;12.23;;;4.75;;
60436;SDS011;46289;51.992;4.498;2022-07-29T04:19:35;9.48;;;4.68;;
60436;SDS011;46289;51.992;4.498;2022-07-29T04:22:05;9.18;;;4.57;;
60436;SDS011;46289;51.992;4.498;2022-07-29T04:24:35;11.07;;;4.70;;
60436;SDS011;46289;51.992;4.498;2022-07-29T04:27:09;10.93;;;4.80;;
60436;SDS011;46289;51.992;4.498;2022-07-29T04:29:41;11.30;;;5.30;;
60436;SDS011;46289;51.992;4.498;2022-07-29T04:32:22;7.78;;;4.68;;
60436;SDS011;46289;51.992;4.498;2022-07-29T04:34:58;9.65;;;4.97;;
60436;SDS011;46289;51.992;4.498;2022-07-29T04:37:28;11.80;;;4.97;;
60436;SDS011;46289;51.992;4.498;2022-07-29T04:40:02;8.02;;;4.38;;
60436;SDS011;46289;51.992;4.498;2022-07-29T04:42:32;11.48;;;4.80;;
60436;SDS011;46289;51.992;4.498;2022-07-29T04:45:12;10.73;;;5.00;;
60436;SDS011;46289;51.992;4.498;2022-07-29T04:47:47;10.70;;;5.18;;
60436;SDS011;46289;51.992;4.498;2022-07-29T04:50:20;11.27;;;5.38;;
60436;SDS011;46289;51.992;4.498;2022-07-29T04:52:51;10.93;;;5.13;;
60436;SDS011;46289;51.992;4.498;2022-07-29T04:55:22;13.70;;;5.65;;
60436;SDS011;46289;51.992;4.498;2022-07-29T04:57:53;10.32;;;5.25;;
60436;SDS011;46289;51.992;4.498;2022-07-29T05:00:27;9.05;;;4.50;;
60436;SDS011;46289;51.992;4.498;2022-07-29T05:03:00;10.83;;;5.97;;
60436;SDS011;46289;51.992;4.498;2022-07-29T05:05:32;9.40;;;5.10;;
60436;SDS011;46289;51.992;4.498;2022-07-29T05:08:02;9.13;;;4.65;;
60436;SDS011;46289;51.992;4.498;2022-07-29T05:10:33;12.77;;;5.10;;
60436;SDS011;46289;51.992;4.498;2022-07-29T05:13:04;10.07;;;4.47;;
60436;SDS011;46289;51.992;4.498;2022-07-29T05:18:08;8.85;;;4.53;;
60436;SDS011;46289;51.992;4.498;2022-07-29T05:20:40;11.50;;;4.75;;
60436;SDS011;46289;51.992;4.498;2022-07-29T05:23:11;10.13;;;4.50;;
60436;SDS011;46289;51.992;4.498;2022-07-29T05:25:42;8.02;;;4.20;;
60436;SDS011;46289;51.992;4.498;2022-07-29T05:28:12;9.40;;;4.30;;
60436;SDS011;46289;51.992;4.498;2022-07-29T05:30:43;10.05;;;4.18;;
60436;SDS011;46289;51.992;4.498;2022-07-29T05:33:15;8.02;;;4.18;;
60436;SDS011;46289;51.992;4.498;2022-07-29T05:36:04;12.45;;;5.57;;
60436;SDS011;46289;51.992;4.498;2022-07-29T05:38:35;8.48;;;4.03;;
60436;SDS011;46289;51.992;4.498;2022-07-29T05:41:05;10.23;;;4.20;;
60436;SDS011;46289;51.992;4.498;2022-07-29T05:43:36;7.75;;;4.32;;
60436;SDS011;46289;51.992;4.498;2022-07-29T05:46:05;10.25;;;4.85;;
60436;SDS011;46289;51.992;4.498;2022-07-29T05:48:36;7.78;;;4.05;;
60436;SDS011;46289;51.992;4.498;2022-07-29T05:51:09;9.05;;;4.50;;
60436;SDS011;46289;51.992;4.498;2022-07-29T05:53:42;10.18;;;3.80;;
60436;SDS011;46289;51.992;4.498;2022-07-29T05:56:12;8.23;;;4.03;;
60436;SDS011;46289;51.992;4.498;2022-07-29T05:58:42;8.48;;;3.85;;
60436;SDS011;46289;51.992;4.498;2022-07-29T06:01:13;10.13;;;4.40;;
60436;SDS011;46289;51.992;4.498;2022-07-29T06:03:44;7.63;;;3.78;;
60436;SDS011;46289;51.992;4.498;2022-07-29T06:06:18;9.35;;;3.70;;
60436;SDS011;46289;51.992;4.498;2022-07-29T06:08:49;8.25;;;3.80;;
60436;SDS011;46289;51.992;4.498;2022-07-29T06:11:19;9.82;;;3.88;;
60436;SDS011;46289;51.992;4.498;2022-07-29T06:13:49;7.60;;;3.45;;
60436;SDS011;46289;51.992;4.498;2022-07-29T06:16:20;7.25;;;3.50;;
60436;SDS011;46289;51.992;4.498;2022-07-29T06:18:55;7.95;;;4.00;;
60436;SDS011;46289;51.992;4.498;2022-07-29T06:21:29;6.35;;;3.78;;
60436;SDS011;46289;51.992;4.498;2022-07-29T06:24:04;6.18;;;3.50;;
60436;SDS011;46289;51.992;4.498;2022-07-29T06:26:35;9.98;;;3.90;;
60436;SDS011;46289;51.992;4.498;2022-07-29T06:29:05;10.07;;;3.72;;
60436;SDS011;46289;51.992;4.498;2022-07-29T06:31:37;6.38;;;3.55;;
60436;SDS011;46289;51.992;4.498;2022-07-29T06:34:07;8.48;;;3.90;;
60436;SDS011;46289;51.992;4.498;2022-07-29T06:36:41;8.35;;;4.18;;
60436;SDS011;46289;51.992;4.498;2022-07-29T06:39:14;10.55;;;4.15;;
60436;SDS011;46289;51.992;4.498;2022-07-29T06:41:47;13.43;;;4.20;;
60436;SDS011;46289;51.992;4.498;2022-07-29T06:44:19;7.25;;;3.88;;
60436;SDS011;46289;51.992;4.498;2022-07-29T06:46:50;8.38;;;3.83;;
60436;SDS011;46289;51.992;4.498;2022-07-29T06:49:23;7.13;;;3.75;;
60436;SDS011;46289;51.992;4.498;2022-07-29T06:54:30;9.57;;;4.30;;
60436;SDS011;46289;51.992;4.498;2022-07-29T06:57:00;9.88;;;3.97;;
60436;SDS011;46289;51.992;4.498;2022-07-29T06:59:30;7.80;;;3.70;;
60436;SDS011;46289;51.992;4.498;2022-07-29T07:02:01;9.07;;;4.10;;
60436;SDS011;46289;51.992;4.498;2022-07-29T07:04:32;7.22;;;3.28;;
60436;SDS011;46289;51.992;4.498;2022-07-29T07:07:05;7.63;;;4.13;;
60436;SDS011;46289;51.992;4.498;2022-07-29T07:09:37;7.97;;;3.65;;
60436;SDS011;46289;51.992;4.498;2022-07-29T07:12:07;8.50;;;3.47;;
60436;SDS011;46289;51.992;4.498;2022-07-29T07:14:41;10.13;;;4.25;;
60436;SDS011;46289;51.992;4.498;2022-07-29T07:17:11;10.40;;;3.83;;
60436;SDS011;46289;51.992;4.498;2022-07-29T07:19:42;9.00;;;3.70;;
60436;SDS011;46289;51.992;4.498;2022-07-29T07:22:16;9.02;;;3.80;;
60436;SDS011;46289;51.992;4.498;2022-07-29T07:27:17;7.63;;;3.45;;
60436;SDS011;46289;51.992;4.498;2022-07-29T07:29:51;9.13;;;3.50;;
60436;SDS011;46289;51.992;4.498;2022-07-29T07:32:22;9.23;;;3.78;;
60436;SDS011;46289;51.992;4.498;2022-07-29T07:34:52;8.65;;;3.33;;
60436;SDS011;46289;51.992;4.498;2022-07-29T07:37:28;11.37;;;4.27;;
60436;SDS011;46289;51.992;4.498;2022-07-29T07:40:01;8.80;;;4.28;;
60436;SDS011;46289;51.992;4.498;2022-07-29T07:42:32;10.13;;;3.97;;
60436;SDS011;46289;51.992;4.498;2022-07-29T07:47:41;9.98;;;3.70;;
60436;SDS011;46289;51.992;4.498;2022-07-29T07:50:12;9.45;;;3.45;;
60436;SDS011;46289;51.992;4.498;2022-07-29T07:52:51;7.93;;;4.18;;
60436;SDS011;46289;51.992;4.498;2022-07-29T07:55:25;9.10;;;3.70;;
60436;SDS011;46289;51.992;4.498;2022-07-29T07:58:17;7.30;;;3.50;;
60436;SDS011;46289;51.992;4.498;2022-07-29T08:03:20;9.65;;;5.00;;
60436;SDS011;46289;51.992;4.498;2022-07-29T08:05:54;8.55;;;3.85;;
60436;SDS011;46289;51.992;4.498;2022-07-29T08:08:29;7.80;;;3.60;;
60436;SDS011;46289;51.992;4.498;2022-07-29T08:11:00;8.98;;;4.13;;
60436;SDS011;46289;51.992;4.498;2022-07-29T08:13:35;10.90;;;4.45;;
60436;SDS011;46289;51.992;4.498;2022-07-29T08:16:06;12.93;;;4.03;;
60436;SDS011;46289;51.992;4.498;2022-07-29T08:18:43;8.38;;;3.67;;
60436;SDS011;46289;51.992;4.498;2022-07-29T08:21:15;7.82;;;3.38;;
60436;SDS011;46289;51.992;4.498;2022-07-29T08:23:50;13.68;;;4.53;;
60436;SDS011;46289;51.992;4.498;2022-07-29T08:26:42;11.07;;;3.88;;
60436;SDS011;46289;51.992;4.498;2022-07-29T08:29:14;7.93;;;4.13;;
60436;SDS011;46289;51.992;4.498;2022-07-29T08:31:45;13.35;;;4.55;;
60436;SDS011;46289;51.992;4.498;2022-07-29T08:34:16;8.43;;;3.92;;
60436;SDS011;46289;51.992;4.498;2022-07-29T08:36:53;11.57;;;4.50;;
60436;SDS011;46289;51.992;4.498;2022-07-29T08:39:29;10.75;;;4.25;;
60436;SDS011;46289;51.992;4.498;2022-07-29T08:42:00;10.35;;;4.50;;
60436;SDS011;46289;51.992;4.498;2022-07-29T08:44:31;10.98;;;4.43;;
60436;SDS011;46289;51.992;4.498;2022-07-29T08:47:02;7.60;;;4.13;;
60436;SDS011;46289;51.992;4.498;2022-07-29T08:49:33;9.15;;;3.95;;
60436;SDS011;46289;51.992;4.498;2022-07-29T08:52:04;7.00;;;4.03;;
60436;SDS011;46289;51.992;4.498;2022-07-29T08:54:40;10.25;;;4.45;;
60436;SDS011;46289;51.992;4.498;2022-07-29T08:57:13;11.15;;;4.28;;
60436;SDS011;46289;51.992;4.498;2022-07-29T08:59:47;11.90;;;4.40;;
60436;SDS011;46289;51.992;4.498;2022-07-29T09:02:20;8.77;;;3.97;;
60436;SDS011;46289;51.992;4.498;2022-07-29T09:04:51;9.60;;;4.22;;
60436;SDS011;46289;51.992;4.498;2022-07-29T09:07:22;8.68;;;3.90;;
60436;SDS011;46289;51.992;4.498;2022-07-29T09:10:02;7.75;;;3.90;;
60436;SDS011;46289;51.992;4.498;2022-07-29T09:12:34;7.72;;;4.07;;
60436;SDS011;46289;51.992;4.498;2022-07-29T09:15:04;12.48;;;4.47;;
60436;SDS011;46289;51.992;4.498;2022-07-29T09:17:41;10.98;;;4.72;;
60436;SDS011;46289;51.992;4.498;2022-07-29T09:20:15;10.38;;;4.22;;
60436;SDS011;46289;51.992;4.498;2022-07-29T09:22:47;10.15;;;4.93;;
60436;SDS011;46289;51.992;4.498;2022-07-29T09:25:35;9.02;;;3.80;;
60436;SDS011;46289;51.992;4.498;2022-07-29T09:28:06;10.80;;;5.35;;
60436;SDS011;46289;51.992;4.498;2022-07-29T09:30:41;11.23;;;4.70;;
60436;SDS011;46289;51.992;4.498;2022-07-29T09:33:20;11.53;;;4.60;;
60436;SDS011;46289;51.992;4.498;2022-07-29T09:35:59;10.95;;;4.70;;
60436;SDS011;46289;51.992;4.498;2022-07-29T09:38:32;11.25;;;4.45;;
60436;SDS011;46289;51.992;4.498;2022-07-29T09:41:05;13.30;;;4.88;;
60436;SDS011;46289;51.992;4.498;2022-07-29T09:43:37;11.82;;;4.95;;
60436;SDS011;46289;51.992;4.498;2022-07-29T09:46:12;10.70;;;4.35;;
60436;SDS011;46289;51.992;4.498;2022-07-29T09:48:43;10.45;;;4.70;;
60436;SDS011;46289;51.992;4.498;2022-07-29T09:51:16;13.20;;;5.15;;
60436;SDS011;46289;51.992;4.498;2022-07-29T09:54:07;12.95;;;4.95;;
60436;SDS011;46289;51.992;4.498;2022-07-29T09:56:55;9.30;;;5.18;;
60436;SDS011;46289;51.992;4.498;2022-07-29T09:59:25;10.73;;;5.03;;
60436;SDS011;46289;51.992;4.498;2022-07-29T10:01:56;11.50;;;5.28;;
60436;SDS011;46289;51.992;4.498;2022-07-29T10:07:11;10.07;;;5.25;;
60436;SDS011;46289;51.992;4.498;2022-07-29T10:09:49;10.40;;;5.00;;
60436;SDS011;46289;51.992;4.498;2022-07-29T10:12:24;9.07;;;5.28;;
60436;SDS011;46289;51.992;4.498;2022-07-29T10:14:55;11.32;;;4.53;;
60436;SDS011;46289;51.992;4.498;2022-07-29T10:17:26;8.65;;;4.43;;
60436;SDS011;46289;51.992;4.498;2022-07-29T10:19:56;7.75;;;4.10;;
60436;SDS011;46289;51.992;4.498;2022-07-29T10:22:27;10.48;;;4.63;;
60436;SDS011;46289;51.992;4.498;2022-07-29T10:25:18;8.38;;;4.85;;
60436;SDS011;46289;51.992;4.498;2022-07-29T10:27:53;8.10;;;4.07;;
60436;SDS011;46289;51.992;4.498;2022-07-29T10:30:24;11.65;;;5.13;;
60436;SDS011;46289;51.992;4.498;2022-07-29T10:35:56;8.85;;;4.38;;
60436;SDS011;46289;51.992;4.498;2022-07-29T10:38:45;11.35;;;3.92;;
60436;SDS011;46289;51.992;4.498;2022-07-29T10:44:20;11.27;;;4.90;;
60436;SDS011;46289;51.992;4.498;2022-07-29T10:46:52;13.40;;;5.15;;
60436;SDS011;46289;51.992;4.498;2022-07-29T10:49:23;9.00;;;3.88;;
60436;SDS011;46289;51.992;4.498;2022-07-29T10:51:57;9.35;;;4.45;;
60436;SDS011;46289;51.992;4.498;2022-07-29T10:54:41;9.63;;;3.63;;
60436;SDS011;46289;51.992;4.498;2022-07-29T10:57:18;10.88;;;3.80;;
60436;SDS011;46289;51.992;4.498;2022-07-29T11:00:30;9.18;;;3.83;;
60436;SDS011;46289;51.992;4.498;2022-07-29T11:03:01;11.13;;;5.47;;
60436;SDS011;46289;51.992;4.498;2022-07-29T11:08:26;8.70;;;4.75;;
60436;SDS011;46289;51.992;4.498;2022-07-29T11:14:03;8.98;;;4.15;;
60436;SDS011;46289;51.992;4.498;2022-07-29T11:19:34;9.50;;;4.38;;
60436;SDS011;46289;51.992;4.498;2022-07-29T11:22:31;10.05;;;4.10;;
60436;SDS011;46289;51.992;4.498;2022-07-29T11:25:12;11.20;;;4.55;;
60436;SDS011;46289;51.992;4.498;2022-07-29T11:27:43;12.23;;;4.10;;
60436;SDS011;46289;51.992;4.498;2022-07-29T11:30:14;8.75;;;3.88;;
60436;SDS011;46289;51.992;4.498;2022-07-29T11:32:53;9.30;;;3.25;;
60436;SDS011;46289;51.992;4.498;2022-07-29T11:35:23;7.40;;;3.60;;
60436;SDS011;46289;51.992;4.498;2022-07-29T11:43:54;8.70;;;3.70;;
60436;SDS011;46289;51.992;4.498;2022-07-29T11:49:22;7.10;;;2.92;;
60436;SDS011;46289;51.992;4.498;2022-07-29T11:52:01;6.28;;;3.10;;
60436;SDS011;46289;51.992;4.498;2022-07-29T11:54:38;7.38;;;3.47;;
60436;SDS011;46289;51.992;4.498;2022-07-29T11:57:26;9.77;;;3.95;;
60436;SDS011;46289;51.992;4.498;2022-07-29T12:00:03;7.10;;;3.58;;
60436;SDS011;46289;51.992;4.498;2022-07-29T12:02:39;7.18;;;3.15;;
60436;SDS011;46289;51.992;4.498;2022-07-29T12:05:16;6.55;;;3.30;;
60436;SDS011;46289;51.992;4.498;2022-07-29T12:08:09;5.78;;;2.95;;
60436;SDS011;46289;51.992;4.498;2022-07-29T12:10:41;9.15;;;3.55;;
60436;SDS011;46289;51.992;4.498;2022-07-29T12:13:13;10.27;;;3.70;;
60436;SDS011;46289;51.992;4.498;2022-07-29T12:15:51;10.03;;;3.43;;
60436;SDS011;46289;51.992;4.498;2022-07-29T12:18:25;10.25;;;3.55;;
60436;SDS011;46289;51.992;4.498;2022-07-29T12:21:00;7.57;;;3.70;;
60436;SDS011;46289;51.992;4.498;2022-07-29T12:23:32;7.90;;;3.72;;
60436;SDS011;46289;51.992;4.498;2022-07-29T12:26:03;7.68;;;3.33;;
60436;SDS011;46289;51.992;4.498;2022-07-29T12:28:36;7.38;;;3.22;;
60436;SDS011;46289;51.992;4.498;2022-07-29T12:31:12;9.13;;;3.67;;
60436;SDS011;46289;51.992;4.498;2022-07-29T12:34:03;11.27;;;3.65;;
60436;SDS011;46289;51.992;4.498;2022-07-29T12:36:37;5.85;;;3.42;;
60436;SDS011;46289;51.992;4.498;2022-07-29T12:39:08;9.48;;;3.95;;
60436;SDS011;46289;51.992;4.498;2022-07-29T12:41:38;7.70;;;3.65;;
60436;SDS011;46289;51.992;4.498;2022-07-29T12:44:09;8.95;;;3.67;;
60436;SDS011;46289;51.992;4.498;2022-07-29T12:46:39;9.55;;;4.15;;
60436;SDS011;46289;51.992;4.498;2022-07-29T12:49:09;10.50;;;4.43;;
60436;SDS011;46289;51.992;4.498;2022-07-29T12:51:42;7.05;;;3.17;;
60436;SDS011;46289;51.992;4.498;2022-07-29T12:54:12;13.85;;;3.50;;
60436;SDS011;46289;51.992;4.498;2022-07-29T12:56:44;7.15;;;3.35;;
60436;SDS011;46289;51.992;4.498;2022-07-29T12:59:17;7.40;;;3.47;;
60436;SDS011;46289;51.992;4.498;2022-07-29T13:01:49;7.88;;;4.15;;
60436;SDS011;46289;51.992;4.498;2022-07-29T13:04:24;9.02;;;3.88;;
60436;SDS011;46289;51.992;4.498;2022-07-29T13:07:03;8.25;;;3.17;;
60436;SDS011;46289;51.992;4.498;2022-07-29T13:09:36;8.80;;;3.60;;
60436;SDS011;46289;51.992;4.498;2022-07-29T13:12:09;8.75;;;3.33;;
60436;SDS011;46289;51.992;4.498;2022-07-29T13:14:40;7.57;;;3.90;;
60436;SDS011;46289;51.992;4.498;2022-07-29T13:17:12;6.80;;;3.40;;
60436;SDS011;46289;51.992;4.498;2022-07-29T13:19:44;8.38;;;3.10;;
60436;SDS011;46289;51.992;4.498;2022-07-29T13:22:19;6.47;;;3.30;;
60436;SDS011;46289;51.992;4.498;2022-07-29T13:24:51;5.95;;;3.33;;
60436;SDS011;46289;51.992;4.498;2022-07-29T13:27:26;7.85;;;3.30;;
60436;SDS011;46289;51.992;4.498;2022-07-29T13:29:59;7.57;;;3.30;;
60436;SDS011;46289;51.992;4.498;2022-07-29T13:32:31;7.97;;;3.65;;
60436;SDS011;46289;51.992;4.498;2022-07-29T13:35:03;7.47;;;3.42;;
60436;SDS011;46289;51.992;4.498;2022-07-29T13:37:38;8.98;;;3.40;;
60436;SDS011;46289;51.992;4.498;2022-07-29T13:42:40;9.50;;;4.00;;
60436;SDS011;46289;51.992;4.498;2022-07-29T13:45:12;9.13;;;3.50;;
60436;SDS011;46289;51.992;4.498;2022-07-29T13:47:42;10.10;;;3.72;;
60436;SDS011;46289;51.992;4.498;2022-07-29T13:50:14;8.00;;;3.83;;
60436;SDS011;46289;51.992;4.498;2022-07-29T13:52:47;6.60;;;3.00;;
60436;SDS011;46289;51.992;4.498;2022-07-29T13:55:18;6.88;;;2.92;;
60436;SDS011;46289;51.992;4.498;2022-07-29T13:57:48;7.47;;;3.15;;
60436;SDS011;46289;51.992;4.498;2022-07-29T14:00:18;6.88;;;3.10;;
60436;SDS011;46289;51.992;4.498;2022-07-29T14:02:50;7.43;;;3.28;;
60436;SDS011;46289;51.992;4.498;2022-07-29T14:05:20;8.80;;;3.10;;
60436;SDS011;46289;51.992;4.498;2022-07-29T14:07:53;5.40;;;3.10;;
60436;SDS011;46289;51.992;4.498;2022-07-29T14:10:26;6.95;;;3.10;;
60436;SDS011;46289;51.992;4.498;2022-07-29T14:12:57;7.45;;;3.25;;
60436;SDS011;46289;51.992;4.498;2022-07-29T14:15:26;8.70;;;3.70;;
60436;SDS011;46289;51.992;4.498;2022-07-29T14:17:57;6.35;;;3.47;;
60436;SDS011;46289;51.992;4.498;2022-07-29T14:20:28;9.18;;;3.65;;
60436;SDS011;46289;51.992;4.498;2022-07-29T14:23:02;7.25;;;3.53;;
60436;SDS011;46289;51.992;4.498;2022-07-29T14:25:32;7.10;;;3.08;;
60436;SDS011;46289;51.992;4.498;2022-07-29T14:28:07;6.68;;;3.10;;
60436;SDS011;46289;51.992;4.498;2022-07-29T14:30:40;7.70;;;3.13;;
60436;SDS011;46289;51.992;4.498;2022-07-29T14:33:12;7.88;;;3.40;;
60436;SDS011;46289;51.992;4.498;2022-07-29T14:35:43;6.18;;;3.20;;
60436;SDS011;46289;51.992;4.498;2022-07-29T14:38:17;7.60;;;3.47;;
60436;SDS011;46289;51.992;4.498;2022-07-29T14:40:52;7.53;;;3.08;;
60436;SDS011;46289;51.992;4.498;2022-07-29T14:43:22;7.10;;;3.20;;
60436;SDS011;46289;51.992;4.498;2022-07-29T14:45:52;4.82;;;2.88;;
60436;SDS011;46289;51.992;4.498;2022-07-29T14:48:30;7.30;;;3.17;;
60436;SDS011;46289;51.992;4.498;2022-07-29T14:51:00;6.32;;;2.90;;
60436;SDS011;46289;51.992;4.498;2022-07-29T14:53:33;7.47;;;3.10;;
60436;SDS011;46289;51.992;4.498;2022-07-29T14:56:04;9.90;;;3.78;;
60436;SDS011;46289;51.992;4.498;2022-07-29T14:58:54;9.00;;;3.42;;
60436;SDS011;46289;51.992;4.498;2022-07-29T15:01:24;6.55;;;3.00;;
60436;SDS011;46289;51.992;4.498;2022-07-29T15:03:59;5.95;;;3.00;;
60436;SDS011;46289;51.992;4.498;2022-07-29T15:06:29;8.88;;;3.25;;
60436;SDS011;46289;51.992;4.498;2022-07-29T15:09:03;5.22;;;2.80;;
60436;SDS011;46289;51.992;4.498;2022-07-29T15:11:33;10.35;;;3.70;;
60436;SDS011;46289;51.992;4.498;2022-07-29T15:14:04;7.65;;;3.38;;
60436;SDS011;46289;51.992;4.498;2022-07-29T15:16:34;8.07;;;3.08;;
60436;SDS011;46289;51.992;4.498;2022-07-29T15:19:09;5.90;;;3.58;;
60436;SDS011;46289;51.992;4.498;2022-07-29T15:24:27;6.97;;;2.80;;
60436;SDS011;46289;51.992;4.498;2022-07-29T15:26:59;8.25;;;3.30;;
60436;SDS011;46289;51.992;4.498;2022-07-29T15:29:31;9.93;;;3.38;;
60436;SDS011;46289;51.992;4.498;2022-07-29T15:32:01;7.93;;;2.90;;
60436;SDS011;46289;51.992;4.498;2022-07-29T15:34:31;7.72;;;3.10;;
60436;SDS011;46289;51.992;4.498;2022-07-29T15:37:02;5.88;;;2.40;;
60436;SDS011;46289;51.992;4.498;2022-07-29T15:39:35;10.27;;;3.05;;
60436;SDS011;46289;51.992;4.498;2022-07-29T15:42:05;6.90;;;2.60;;
60436;SDS011;46289;51.992;4.498;2022-07-29T15:44:35;10.93;;;4.03;;
60436;SDS011;46289;51.992;4.498;2022-07-29T15:47:05;9.02;;;2.92;;
60436;SDS011;46289;51.992;4.498;2022-07-29T15:49:36;7.13;;;2.70;;
60436;SDS011;46289;51.992;4.498;2022-07-29T15:52:15;5.75;;;2.80;;
60436;SDS011;46289;51.992;4.498;2022-07-29T15:54:54;9.30;;;3.17;;
60436;SDS011;46289;51.992;4.498;2022-07-29T15:57:26;7.90;;;2.95;;
60436;SDS011;46289;51.992;4.498;2022-07-29T15:59:59;8.18;;;2.70;;
60436;SDS011;46289;51.992;4.498;2022-07-29T16:02:29;8.57;;;2.85;;
60436;SDS011;46289;51.992;4.498;2022-07-29T16:04:59;8.40;;;2.97;;
60436;SDS011;46289;51.992;4.498;2022-07-29T16:07:34;9.07;;;2.85;;
60436;SDS011;46289;51.992;4.498;2022-07-29T16:10:07;6.68;;;3.08;;